sensor_id;sensor_type;location;lat;lon;timestamp;P1;durP1;ratioP1;P2;durP2;ratioP2
15624;SDS011;7912;51.376;6.126;2023-12-29T00:02:20;8.17;;;2.20;;
15624;SDS011;7912;51.376;6.126;2023-12-29T00:04:48;3.77;;;2.00;;
15624;SDS011;7912;51.376;6.126;2023-12-29T00:07:18;4.60;;;2.10;;
15624;SDS011;7912;51.376;6.126;2023-12-29T00:09:47;5.23;;;2.07;;
15624;SDS011;7912;51.376;6.126;2023-12-29T00:12:15;6.47;;;2.10;;
15624;SDS011;7912;51.376;6.126;2023-12-29T00:14:42;5.10;;;2.00;;
15624;SDS011;7912;51.376;6.126;2023-12-29T00:17:13;5.37;;;1.90;;
15624;SDS011;7912;51.376;6.126;2023-12-29T00:19:40;5.20;;;1.80;;
15624;SDS011;7912;51.376;6.126;2023-12-29T00:22:07;6.93;;;2.00;;
15624;SDS011;7912;51.376;6.126;2023-12-29T00:24:35;3.73;;;1.67;;
15624;SDS011;7912;51.376;6.126;2023-12-29T00:27:02;4.30;;;1.70;;
15624;SDS011;7912;51.376;6.126;2023-12-29T00:29:29;6.17;;;2.00;;
15624;SDS011;7912;51.376;6.126;2023-12-29T00:32:00;2.90;;;1.57;;
15624;SDS011;7912;51.376;6.126;2023-12-29T00:34:30;5.23;;;1.93;;
15624;SDS011;7912;51.376;6.126;2023-12-29T00:36:58;6.30;;;1.70;;
15624;SDS011;7912;51.376;6.126;2023-12-29T00:39:26;5.37;;;1.97;;
15624;SDS011;7912;51.376;6.126;2023-12-29T00:41:58;5.20;;;2.00;;
15624;SDS011;7912;51.376;6.126;2023-12-29T00:44:29;3.73;;;1.70;;
15624;SDS011;7912;51.376;6.126;2023-12-29T00:46:56;6.23;;;1.90;;
15624;SDS011;7912;51.376;6.126;2023-12-29T00:49:23;5.17;;;1.83;;
15624;SDS011;7912;51.376;6.126;2023-12-29T00:51:51;5.10;;;1.87;;
15624;SDS011;7912;51.376;6.126;2023-12-29T00:54:19;6.30;;;2.03;;
15624;SDS011;7912;51.376;6.126;2023-12-29T00:56:49;4.10;;;1.70;;
15624;SDS011;7912;51.376;6.126;2023-12-29T00:59:21;3.03;;;1.67;;
15624;SDS011;7912;51.376;6.126;2023-12-29T01:01:50;5.53;;;1.83;;
15624;SDS011;7912;51.376;6.126;2023-12-29T01:04:18;4.07;;;2.00;;
15624;SDS011;7912;51.376;6.126;2023-12-29T01:06:45;4.17;;;1.73;;
15624;SDS011;7912;51.376;6.126;2023-12-29T01:09:13;5.20;;;1.80;;
15624;SDS011;7912;51.376;6.126;2023-12-29T01:11:40;4.33;;;1.90;;
15624;SDS011;7912;51.376;6.126;2023-12-29T01:14:07;6.33;;;2.07;;
15624;SDS011;7912;51.376;6.126;2023-12-29T01:16:34;5.57;;;1.87;;
15624;SDS011;7912;51.376;6.126;2023-12-29T01:19:01;7.20;;;2.30;;
15624;SDS011;7912;51.376;6.126;2023-12-29T01:21:29;4.43;;;1.77;;
15624;SDS011;7912;51.376;6.126;2023-12-29T01:24:01;7.70;;;2.07;;
15624;SDS011;7912;51.376;6.126;2023-12-29T01:26:30;8.50;;;2.40;;
15624;SDS011;7912;51.376;6.126;2023-12-29T01:28:57;4.80;;;1.83;;
15624;SDS011;7912;51.376;6.126;2023-12-29T01:31:28;4.90;;;1.77;;
15624;SDS011;7912;51.376;6.126;2023-12-29T01:33:59;6.27;;;2.00;;
15624;SDS011;7912;51.376;6.126;2023-12-29T01:36:27;4.17;;;2.50;;
15624;SDS011;7912;51.376;6.126;2023-12-29T01:38:54;3.77;;;1.60;;
15624;SDS011;7912;51.376;6.126;2023-12-29T01:41:22;5.47;;;2.30;;
15624;SDS011;7912;51.376;6.126;2023-12-29T01:46:28;6.30;;;2.10;;
15624;SDS011;7912;51.376;6.126;2023-12-29T01:48:59;5.90;;;2.13;;
15624;SDS011;7912;51.376;6.126;2023-12-29T01:51:28;4.80;;;1.97;;
15624;SDS011;7912;51.376;6.126;2023-12-29T01:53:57;7.40;;;2.43;;
15624;SDS011;7912;51.376;6.126;2023-12-29T01:56:25;8.13;;;2.50;;
15624;SDS011;7912;51.376;6.126;2023-12-29T01:58:53;7.37;;;2.40;;
15624;SDS011;7912;51.376;6.126;2023-12-29T02:01:36;5.27;;;2.00;;
15624;SDS011;7912;51.376;6.126;2023-12-29T02:04:08;4.93;;;2.20;;
15624;SDS011;7912;51.376;6.126;2023-12-29T02:06:38;6.30;;;2.50;;
15624;SDS011;7912;51.376;6.126;2023-12-29T02:09:06;8.40;;;2.60;;
15624;SDS011;7912;51.376;6.126;2023-12-29T02:11:35;6.63;;;2.40;;
15624;SDS011;7912;51.376;6.126;2023-12-29T02:14:02;5.67;;;2.27;;
15624;SDS011;7912;51.376;6.126;2023-12-29T02:16:33;8.23;;;2.50;;
15624;SDS011;7912;51.376;6.126;2023-12-29T02:22:07;7.50;;;2.10;;
15624;SDS011;7912;51.376;6.126;2023-12-29T02:24:36;6.00;;;2.30;;
15624;SDS011;7912;51.376;6.126;2023-12-29T02:27:11;7.70;;;2.30;;
15624;SDS011;7912;51.376;6.126;2023-12-29T02:30:28;6.07;;;2.57;;
15624;SDS011;7912;51.376;6.126;2023-12-29T02:33:05;4.77;;;2.00;;
15624;SDS011;7912;51.376;6.126;2023-12-29T02:35:41;4.47;;;2.20;;
15624;SDS011;7912;51.376;6.126;2023-12-29T02:38:11;7.13;;;2.10;;
15624;SDS011;7912;51.376;6.126;2023-12-29T02:40:40;4.50;;;2.00;;
15624;SDS011;7912;51.376;6.126;2023-12-29T02:43:11;4.57;;;2.17;;
15624;SDS011;7912;51.376;6.126;2023-12-29T02:45:38;5.23;;;2.00;;
15624;SDS011;7912;51.376;6.126;2023-12-29T02:48:06;5.63;;;2.47;;
15624;SDS011;7912;51.376;6.126;2023-12-29T02:50:33;6.37;;;2.30;;
15624;SDS011;7912;51.376;6.126;2023-12-29T02:53:03;4.93;;;2.30;;
15624;SDS011;7912;51.376;6.126;2023-12-29T02:55:31;4.13;;;1.77;;
15624;SDS011;7912;51.376;6.126;2023-12-29T02:57:58;5.00;;;2.20;;
15624;SDS011;7912;51.376;6.126;2023-12-29T03:00:28;4.93;;;2.40;;
15624;SDS011;7912;51.376;6.126;2023-12-29T03:02:57;5.60;;;2.10;;
15624;SDS011;7912;51.376;6.126;2023-12-29T03:05:24;6.23;;;2.27;;
15624;SDS011;7912;51.376;6.126;2023-12-29T03:07:51;6.17;;;2.17;;
15624;SDS011;7912;51.376;6.126;2023-12-29T03:10:18;7.43;;;2.30;;
15624;SDS011;7912;51.376;6.126;2023-12-29T03:12:46;6.77;;;2.13;;
15624;SDS011;7912;51.376;6.126;2023-12-29T03:15:13;8.10;;;2.03;;
15624;SDS011;7912;51.376;6.126;2023-12-29T03:17:40;7.03;;;1.83;;
15624;SDS011;7912;51.376;6.126;2023-12-29T03:20:10;5.57;;;2.30;;
15624;SDS011;7912;51.376;6.126;2023-12-29T03:22:38;6.37;;;2.23;;
15624;SDS011;7912;51.376;6.126;2023-12-29T03:25:05;4.77;;;1.97;;
15624;SDS011;7912;51.376;6.126;2023-12-29T03:27:33;4.73;;;2.07;;
15624;SDS011;7912;51.376;6.126;2023-12-29T03:30:00;4.87;;;1.90;;
15624;SDS011;7912;51.376;6.126;2023-12-29T03:32:28;5.93;;;2.10;;
15624;SDS011;7912;51.376;6.126;2023-12-29T03:34:55;6.83;;;2.07;;
15624;SDS011;7912;51.376;6.126;2023-12-29T03:37:22;3.97;;;1.90;;
15624;SDS011;7912;51.376;6.126;2023-12-29T03:39:53;7.20;;;1.90;;
15624;SDS011;7912;51.376;6.126;2023-12-29T03:42:20;5.37;;;2.03;;
15624;SDS011;7912;51.376;6.126;2023-12-29T03:44:47;4.60;;;1.90;;
15624;SDS011;7912;51.376;6.126;2023-12-29T03:47:14;6.30;;;2.00;;
15624;SDS011;7912;51.376;6.126;2023-12-29T03:49:42;5.77;;;1.97;;
15624;SDS011;7912;51.376;6.126;2023-12-29T03:52:09;5.47;;;2.00;;
15624;SDS011;7912;51.376;6.126;2023-12-29T03:54:38;5.93;;;2.30;;
15624;SDS011;7912;51.376;6.126;2023-12-29T03:57:05;5.97;;;2.10;;
15624;SDS011;7912;51.376;6.126;2023-12-29T03:59:32;6.07;;;2.10;;
15624;SDS011;7912;51.376;6.126;2023-12-29T04:02:04;7.53;;;2.37;;
15624;SDS011;7912;51.376;6.126;2023-12-29T04:04:31;5.80;;;2.13;;
15624;SDS011;7912;51.376;6.126;2023-12-29T04:06:58;6.10;;;2.20;;
15624;SDS011;7912;51.376;6.126;2023-12-29T04:09:26;4.20;;;1.80;;
15624;SDS011;7912;51.376;6.126;2023-12-29T04:11:53;4.40;;;2.10;;
15624;SDS011;7912;51.376;6.126;2023-12-29T04:14:20;4.57;;;1.90;;
15624;SDS011;7912;51.376;6.126;2023-12-29T04:16:51;4.80;;;2.30;;
15624;SDS011;7912;51.376;6.126;2023-12-29T04:19:20;5.33;;;1.80;;
15624;SDS011;7912;51.376;6.126;2023-12-29T04:21:50;6.50;;;2.10;;
15624;SDS011;7912;51.376;6.126;2023-12-29T04:24:18;5.00;;;1.67;;
15624;SDS011;7912;51.376;6.126;2023-12-29T04:26:45;6.50;;;1.90;;
15624;SDS011;7912;51.376;6.126;2023-12-29T04:29:13;4.73;;;2.10;;
15624;SDS011;7912;51.376;6.126;2023-12-29T04:31:40;5.13;;;1.90;;
15624;SDS011;7912;51.376;6.126;2023-12-29T04:34:08;6.07;;;1.90;;
15624;SDS011;7912;51.376;6.126;2023-12-29T04:36:35;4.93;;;2.00;;
15624;SDS011;7912;51.376;6.126;2023-12-29T04:39:03;5.50;;;2.20;;
15624;SDS011;7912;51.376;6.126;2023-12-29T04:41:30;5.23;;;1.80;;
15624;SDS011;7912;51.376;6.126;2023-12-29T04:43:57;6.27;;;2.00;;
15624;SDS011;7912;51.376;6.126;2023-12-29T04:46:24;8.07;;;2.13;;
15624;SDS011;7912;51.376;6.126;2023-12-29T04:48:54;5.17;;;2.10;;
15624;SDS011;7912;51.376;6.126;2023-12-29T04:51:22;5.33;;;1.93;;
15624;SDS011;7912;51.376;6.126;2023-12-29T04:53:50;5.37;;;2.20;;
15624;SDS011;7912;51.376;6.126;2023-12-29T04:56:17;5.63;;;2.13;;
15624;SDS011;7912;51.376;6.126;2023-12-29T04:58:45;4.47;;;1.90;;
15624;SDS011;7912;51.376;6.126;2023-12-29T05:01:12;6.23;;;2.07;;
15624;SDS011;7912;51.376;6.126;2023-12-29T05:03:40;4.53;;;1.97;;
15624;SDS011;7912;51.376;6.126;2023-12-29T05:06:09;4.93;;;1.80;;
15624;SDS011;7912;51.376;6.126;2023-12-29T05:08:36;4.40;;;1.80;;
15624;SDS011;7912;51.376;6.126;2023-12-29T05:11:04;8.67;;;1.93;;
15624;SDS011;7912;51.376;6.126;2023-12-29T05:13:31;4.67;;;1.97;;
15624;SDS011;7912;51.376;6.126;2023-12-29T05:16:01;7.37;;;2.10;;
15624;SDS011;7912;51.376;6.126;2023-12-29T05:18:30;4.50;;;1.80;;
15624;SDS011;7912;51.376;6.126;2023-12-29T05:21:00;6.67;;;2.07;;
15624;SDS011;7912;51.376;6.126;2023-12-29T05:23:30;5.70;;;1.93;;
15624;SDS011;7912;51.376;6.126;2023-12-29T05:25:59;6.10;;;1.97;;
15624;SDS011;7912;51.376;6.126;2023-12-29T05:28:26;7.07;;;1.90;;
15624;SDS011;7912;51.376;6.126;2023-12-29T05:30:53;6.40;;;1.97;;
15624;SDS011;7912;51.376;6.126;2023-12-29T05:33:21;7.50;;;1.80;;
15624;SDS011;7912;51.376;6.126;2023-12-29T05:35:48;4.03;;;1.90;;
15624;SDS011;7912;51.376;6.126;2023-12-29T05:38:15;5.10;;;2.00;;
15624;SDS011;7912;51.376;6.126;2023-12-29T05:40:42;6.20;;;1.90;;
15624;SDS011;7912;51.376;6.126;2023-12-29T05:43:10;5.67;;;2.10;;
15624;SDS011;7912;51.376;6.126;2023-12-29T05:45:39;4.27;;;1.63;;
15624;SDS011;7912;51.376;6.126;2023-12-29T05:48:06;5.37;;;1.80;;
15624;SDS011;7912;51.376;6.126;2023-12-29T05:50:36;6.03;;;1.83;;
15624;SDS011;7912;51.376;6.126;2023-12-29T05:53:03;5.00;;;1.73;;
15624;SDS011;7912;51.376;6.126;2023-12-29T05:55:32;5.03;;;1.73;;
15624;SDS011;7912;51.376;6.126;2023-12-29T05:58:02;5.07;;;2.20;;
15624;SDS011;7912;51.376;6.126;2023-12-29T06:00:30;4.40;;;1.70;;
15624;SDS011;7912;51.376;6.126;2023-12-29T06:02:57;5.47;;;1.80;;
15624;SDS011;7912;51.376;6.126;2023-12-29T06:05:26;4.73;;;1.87;;
15624;SDS011;7912;51.376;6.126;2023-12-29T06:07:53;6.57;;;1.77;;
15624;SDS011;7912;51.376;6.126;2023-12-29T06:10:21;6.67;;;2.07;;
15624;SDS011;7912;51.376;6.126;2023-12-29T06:12:48;6.63;;;2.00;;
15624;SDS011;7912;51.376;6.126;2023-12-29T06:15:16;4.27;;;1.60;;
15624;SDS011;7912;51.376;6.126;2023-12-29T06:17:43;5.90;;;2.20;;
15624;SDS011;7912;51.376;6.126;2023-12-29T06:20:10;4.93;;;1.77;;
15624;SDS011;7912;51.376;6.126;2023-12-29T06:22:41;7.50;;;1.97;;
15624;SDS011;7912;51.376;6.126;2023-12-29T06:25:09;7.53;;;2.00;;
15624;SDS011;7912;51.376;6.126;2023-12-29T06:27:38;6.23;;;2.40;;
15624;SDS011;7912;51.376;6.126;2023-12-29T06:30:07;6.03;;;1.93;;
15624;SDS011;7912;51.376;6.126;2023-12-29T06:32:37;5.17;;;2.03;;
15624;SDS011;7912;51.376;6.126;2023-12-29T06:35:07;6.17;;;2.07;;
15624;SDS011;7912;51.376;6.126;2023-12-29T06:37:39;4.47;;;1.83;;
15624;SDS011;7912;51.376;6.126;2023-12-29T06:40:07;6.07;;;2.10;;
15624;SDS011;7912;51.376;6.126;2023-12-29T06:42:35;5.63;;;1.97;;
15624;SDS011;7912;51.376;6.126;2023-12-29T06:45:04;8.00;;;2.27;;
15624;SDS011;7912;51.376;6.126;2023-12-29T06:47:34;4.47;;;1.93;;
15624;SDS011;7912;51.376;6.126;2023-12-29T06:50:02;5.97;;;1.90;;
15624;SDS011;7912;51.376;6.126;2023-12-29T06:52:30;5.40;;;1.90;;
15624;SDS011;7912;51.376;6.126;2023-12-29T06:55:00;6.37;;;2.30;;
15624;SDS011;7912;51.376;6.126;2023-12-29T06:57:28;5.57;;;1.90;;
15624;SDS011;7912;51.376;6.126;2023-12-29T06:59:55;6.63;;;2.00;;
15624;SDS011;7912;51.376;6.126;2023-12-29T07:02:23;4.27;;;1.70;;
15624;SDS011;7912;51.376;6.126;2023-12-29T07:04:50;5.70;;;1.90;;
15624;SDS011;7912;51.376;6.126;2023-12-29T07:07:17;6.83;;;1.97;;
15624;SDS011;7912;51.376;6.126;2023-12-29T07:09:45;5.87;;;1.90;;
15624;SDS011;7912;51.376;6.126;2023-12-29T07:12:12;7.10;;;1.90;;
15624;SDS011;7912;51.376;6.126;2023-12-29T07:14:40;6.23;;;1.90;;
15624;SDS011;7912;51.376;6.126;2023-12-29T07:17:08;5.83;;;2.00;;
15624;SDS011;7912;51.376;6.126;2023-12-29T07:19:36;5.13;;;1.90;;
15624;SDS011;7912;51.376;6.126;2023-12-29T07:22:04;5.90;;;1.80;;
15624;SDS011;7912;51.376;6.126;2023-12-29T07:24:35;6.00;;;1.67;;
15624;SDS011;7912;51.376;6.126;2023-12-29T07:27:03;4.70;;;1.80;;
15624;SDS011;7912;51.376;6.126;2023-12-29T07:29:31;4.77;;;1.40;;
15624;SDS011;7912;51.376;6.126;2023-12-29T07:31:58;3.97;;;1.67;;
15624;SDS011;7912;51.376;6.126;2023-12-29T07:34:25;4.40;;;2.10;;
15624;SDS011;7912;51.376;6.126;2023-12-29T07:36:54;4.87;;;2.17;;
15624;SDS011;7912;51.376;6.126;2023-12-29T07:39:21;3.30;;;1.63;;
15624;SDS011;7912;51.376;6.126;2023-12-29T07:41:49;6.73;;;2.20;;
15624;SDS011;7912;51.376;6.126;2023-12-29T07:44:17;7.13;;;1.90;;
15624;SDS011;7912;51.376;6.126;2023-12-29T07:46:44;5.93;;;2.53;;
15624;SDS011;7912;51.376;6.126;2023-12-29T07:49:12;6.10;;;2.27;;
15624;SDS011;7912;51.376;6.126;2023-12-29T07:51:40;5.50;;;2.03;;
15624;SDS011;7912;51.376;6.126;2023-12-29T07:54:09;5.23;;;1.73;;
15624;SDS011;7912;51.376;6.126;2023-12-29T07:56:36;4.30;;;1.87;;
15624;SDS011;7912;51.376;6.126;2023-12-29T07:59:04;3.83;;;1.90;;
15624;SDS011;7912;51.376;6.126;2023-12-29T08:01:32;4.27;;;1.73;;
15624;SDS011;7912;51.376;6.126;2023-12-29T08:04:00;4.13;;;1.73;;
15624;SDS011;7912;51.376;6.126;2023-12-29T08:06:27;5.57;;;1.87;;
15624;SDS011;7912;51.376;6.126;2023-12-29T08:08:55;3.43;;;1.63;;
15624;SDS011;7912;51.376;6.126;2023-12-29T08:11:22;6.20;;;1.70;;
15624;SDS011;7912;51.376;6.126;2023-12-29T08:13:51;5.67;;;1.77;;
15624;SDS011;7912;51.376;6.126;2023-12-29T08:16:19;4.33;;;1.60;;
15624;SDS011;7912;51.376;6.126;2023-12-29T08:18:46;3.10;;;1.43;;
15624;SDS011;7912;51.376;6.126;2023-12-29T08:21:18;4.67;;;1.80;;
15624;SDS011;7912;51.376;6.126;2023-12-29T08:23:46;6.40;;;1.90;;
15624;SDS011;7912;51.376;6.126;2023-12-29T08:26:14;2.53;;;1.47;;
15624;SDS011;7912;51.376;6.126;2023-12-29T08:28:42;5.03;;;1.80;;
15624;SDS011;7912;51.376;6.126;2023-12-29T08:31:09;2.37;;;1.43;;
15624;SDS011;7912;51.376;6.126;2023-12-29T08:33:37;3.17;;;1.50;;
15624;SDS011;7912;51.376;6.126;2023-12-29T08:36:04;4.90;;;1.83;;
15624;SDS011;7912;51.376;6.126;2023-12-29T08:38:33;5.30;;;1.70;;
15624;SDS011;7912;51.376;6.126;2023-12-29T08:41:00;3.43;;;1.07;;
15624;SDS011;7912;51.376;6.126;2023-12-29T08:43:27;4.87;;;1.50;;
15624;SDS011;7912;51.376;6.126;2023-12-29T08:45:55;2.67;;;1.20;;
15624;SDS011;7912;51.376;6.126;2023-12-29T08:48:25;2.23;;;1.20;;
15624;SDS011;7912;51.376;6.126;2023-12-29T08:50:52;2.57;;;1.27;;
15624;SDS011;7912;51.376;6.126;2023-12-29T08:53:22;2.43;;;1.20;;
15624;SDS011;7912;51.376;6.126;2023-12-29T08:55:49;2.10;;;1.10;;
15624;SDS011;7912;51.376;6.126;2023-12-29T08:58:16;1.53;;;1.00;;
15624;SDS011;7912;51.376;6.126;2023-12-29T09:00:44;4.70;;;3.20;;
15624;SDS011;7912;51.376;6.126;2023-12-29T09:03:11;3.17;;;1.40;;
15624;SDS011;7912;51.376;6.126;2023-12-29T09:05:38;1.33;;;1.10;;
15624;SDS011;7912;51.376;6.126;2023-12-29T09:08:06;1.77;;;1.20;;
15624;SDS011;7912;51.376;6.126;2023-12-29T09:10:36;1.00;;;0.90;;
15624;SDS011;7912;51.376;6.126;2023-12-29T09:13:05;1.57;;;1.07;;
15624;SDS011;7912;51.376;6.126;2023-12-29T09:15:32;3.13;;;1.30;;
15624;SDS011;7912;51.376;6.126;2023-12-29T09:18:01;1.30;;;0.80;;
15624;SDS011;7912;51.376;6.126;2023-12-29T09:20:29;1.73;;;0.90;;
15624;SDS011;7912;51.376;6.126;2023-12-29T09:22:57;1.23;;;0.90;;
15624;SDS011;7912;51.376;6.126;2023-12-29T09:25:24;2.10;;;0.93;;
15624;SDS011;7912;51.376;6.126;2023-12-29T09:27:54;1.90;;;0.80;;
15624;SDS011;7912;51.376;6.126;2023-12-29T09:30:22;2.53;;;0.90;;
15624;SDS011;7912;51.376;6.126;2023-12-29T09:32:49;1.30;;;0.60;;
15624;SDS011;7912;51.376;6.126;2023-12-29T09:35:16;2.07;;;0.70;;
15624;SDS011;7912;51.376;6.126;2023-12-29T09:37:44;1.30;;;0.73;;
15624;SDS011;7912;51.376;6.126;2023-12-29T09:40:11;3.13;;;0.80;;
15624;SDS011;7912;51.376;6.126;2023-12-29T09:42:39;1.57;;;0.97;;
15624;SDS011;7912;51.376;6.126;2023-12-29T09:45:11;0.90;;;0.80;;
15624;SDS011;7912;51.376;6.126;2023-12-29T09:47:41;2.07;;;1.00;;
15624;SDS011;7912;51.376;6.126;2023-12-29T09:52:56;0.90;;;0.80;;
15624;SDS011;7912;51.376;6.126;2023-12-29T09:55:26;2.00;;;0.90;;
15624;SDS011;7912;51.376;6.126;2023-12-29T09:57:54;1.53;;;0.80;;
15624;SDS011;7912;51.376;6.126;2023-12-29T10:00:25;1.87;;;1.07;;
15624;SDS011;7912;51.376;6.126;2023-12-29T10:02:56;0.93;;;0.70;;
15624;SDS011;7912;51.376;6.126;2023-12-29T10:05:24;1.97;;;1.20;;
15624;SDS011;7912;51.376;6.126;2023-12-29T10:07:52;1.83;;;1.30;;
15624;SDS011;7912;51.376;6.126;2023-12-29T10:10:20;3.07;;;1.20;;
15624;SDS011;7912;51.376;6.126;2023-12-29T10:12:50;2.43;;;1.20;;
15624;SDS011;7912;51.376;6.126;2023-12-29T10:15:25;1.73;;;1.23;;
15624;SDS011;7912;51.376;6.126;2023-12-29T10:21:27;2.10;;;1.20;;
15624;SDS011;7912;51.376;6.126;2023-12-29T10:24:31;2.93;;;1.30;;
15624;SDS011;7912;51.376;6.126;2023-12-29T10:27:03;3.07;;;1.37;;
15624;SDS011;7912;51.376;6.126;2023-12-29T10:29:31;2.33;;;1.10;;
15624;SDS011;7912;51.376;6.126;2023-12-29T10:32:01;3.07;;;1.13;;
15624;SDS011;7912;51.376;6.126;2023-12-29T10:34:28;1.93;;;1.20;;
15624;SDS011;7912;51.376;6.126;2023-12-29T10:36:59;1.87;;;1.00;;
15624;SDS011;7912;51.376;6.126;2023-12-29T10:39:35;1.93;;;1.00;;
15624;SDS011;7912;51.376;6.126;2023-12-29T10:42:03;2.70;;;1.10;;
15624;SDS011;7912;51.376;6.126;2023-12-29T10:44:37;1.37;;;0.93;;
15624;SDS011;7912;51.376;6.126;2023-12-29T10:47:11;2.13;;;0.80;;
15624;SDS011;7912;51.376;6.126;2023-12-29T10:49:41;2.00;;;0.90;;
15624;SDS011;7912;51.376;6.126;2023-12-29T10:52:12;1.73;;;0.70;;
15624;SDS011;7912;51.376;6.126;2023-12-29T10:54:41;1.53;;;0.80;;
15624;SDS011;7912;51.376;6.126;2023-12-29T10:57:10;1.80;;;0.87;;
15624;SDS011;7912;51.376;6.126;2023-12-29T10:59:39;1.40;;;0.80;;
15624;SDS011;7912;51.376;6.126;2023-12-29T11:02:07;0.77;;;0.60;;
15624;SDS011;7912;51.376;6.126;2023-12-29T11:04:41;1.27;;;0.73;;
15624;SDS011;7912;51.376;6.126;2023-12-29T11:07:08;1.30;;;0.80;;
15624;SDS011;7912;51.376;6.126;2023-12-29T11:09:40;1.43;;;1.00;;
15624;SDS011;7912;51.376;6.126;2023-12-29T11:12:08;1.20;;;0.90;;
15624;SDS011;7912;51.376;6.126;2023-12-29T11:14:40;2.33;;;1.10;;
15624;SDS011;7912;51.376;6.126;2023-12-29T11:17:12;2.13;;;1.00;;
15624;SDS011;7912;51.376;6.126;2023-12-29T11:19:42;2.27;;;1.00;;
15624;SDS011;7912;51.376;6.126;2023-12-29T11:22:17;2.27;;;1.10;;
15624;SDS011;7912;51.376;6.126;2023-12-29T11:24:47;1.50;;;0.93;;
15624;SDS011;7912;51.376;6.126;2023-12-29T11:27:16;3.67;;;2.47;;
15624;SDS011;7912;51.376;6.126;2023-12-29T11:29:43;1.50;;;1.00;;
15624;SDS011;7912;51.376;6.126;2023-12-29T11:32:14;2.13;;;0.97;;
15624;SDS011;7912;51.376;6.126;2023-12-29T11:34:59;2.30;;;1.30;;
15624;SDS011;7912;51.376;6.126;2023-12-29T11:43:57;3.07;;;1.20;;
15624;SDS011;7912;51.376;6.126;2023-12-29T11:46:44;4.07;;;1.57;;
15624;SDS011;7912;51.376;6.126;2023-12-29T11:49:11;1.43;;;1.10;;
15624;SDS011;7912;51.376;6.126;2023-12-29T11:51:39;2.73;;;1.40;;
15624;SDS011;7912;51.376;6.126;2023-12-29T11:54:23;1.97;;;1.27;;
15624;SDS011;7912;51.376;6.126;2023-12-29T11:56:55;1.67;;;1.20;;
15624;SDS011;7912;51.376;6.126;2023-12-29T11:59:23;2.30;;;1.20;;
15624;SDS011;7912;51.376;6.126;2023-12-29T12:01:54;3.77;;;1.40;;
15624;SDS011;7912;51.376;6.126;2023-12-29T12:04:34;2.10;;;1.17;;
15624;SDS011;7912;51.376;6.126;2023-12-29T12:07:13;2.27;;;1.20;;
15624;SDS011;7912;51.376;6.126;2023-12-29T12:12:46;2.60;;;1.00;;
15624;SDS011;7912;51.376;6.126;2023-12-29T12:17:56;2.13;;;1.30;;
15624;SDS011;7912;51.376;6.126;2023-12-29T12:20:27;2.43;;;1.33;;
15624;SDS011;7912;51.376;6.126;2023-12-29T12:23:02;3.73;;;1.30;;
15624;SDS011;7912;51.376;6.126;2023-12-29T12:25:40;2.30;;;1.43;;
15624;SDS011;7912;51.376;6.126;2023-12-29T12:28:09;2.93;;;1.67;;
15624;SDS011;7912;51.376;6.126;2023-12-29T12:30:37;3.30;;;1.50;;
15624;SDS011;7912;51.376;6.126;2023-12-29T12:33:04;1.47;;;1.17;;
15624;SDS011;7912;51.376;6.126;2023-12-29T12:35:33;3.43;;;1.50;;
15624;SDS011;7912;51.376;6.126;2023-12-29T12:38:07;3.53;;;1.70;;
15624;SDS011;7912;51.376;6.126;2023-12-29T12:40:48;3.17;;;1.50;;
15624;SDS011;7912;51.376;6.126;2023-12-29T12:43:18;5.23;;;1.53;;
15624;SDS011;7912;51.376;6.126;2023-12-29T12:45:53;3.73;;;1.40;;
15624;SDS011;7912;51.376;6.126;2023-12-29T12:48:32;3.73;;;1.43;;
15624;SDS011;7912;51.376;6.126;2023-12-29T12:51:07;3.43;;;1.60;;
15624;SDS011;7912;51.376;6.126;2023-12-29T12:53:45;3.27;;;1.60;;
15624;SDS011;7912;51.376;6.126;2023-12-29T12:56:14;4.53;;;2.60;;
15624;SDS011;7912;51.376;6.126;2023-12-29T12:58:46;2.47;;;1.60;;
15624;SDS011;7912;51.376;6.126;2023-12-29T13:01:14;5.03;;;1.50;;
15624;SDS011;7912;51.376;6.126;2023-12-29T13:03:42;2.10;;;1.30;;
15624;SDS011;7912;51.376;6.126;2023-12-29T13:06:11;2.40;;;1.40;;
15624;SDS011;7912;51.376;6.126;2023-12-29T13:08:38;3.10;;;1.70;;
15624;SDS011;7912;51.376;6.126;2023-12-29T13:11:09;4.07;;;1.53;;
15624;SDS011;7912;51.376;6.126;2023-12-29T13:13:39;2.40;;;1.50;;
15624;SDS011;7912;51.376;6.126;2023-12-29T13:16:10;2.90;;;1.40;;
15624;SDS011;7912;51.376;6.126;2023-12-29T13:18:37;4.60;;;1.60;;
15624;SDS011;7912;51.376;6.126;2023-12-29T13:21:05;2.63;;;1.70;;
15624;SDS011;7912;51.376;6.126;2023-12-29T13:23:35;3.83;;;1.50;;
15624;SDS011;7912;51.376;6.126;2023-12-29T13:26:05;2.33;;;1.50;;
15624;SDS011;7912;51.376;6.126;2023-12-29T13:28:36;5.17;;;1.70;;
15624;SDS011;7912;51.376;6.126;2023-12-29T13:31:07;2.60;;;1.43;;
15624;SDS011;7912;51.376;6.126;2023-12-29T13:36:53;4.23;;;1.60;;
15624;SDS011;7912;51.376;6.126;2023-12-29T13:42:28;4.17;;;1.70;;
15624;SDS011;7912;51.376;6.126;2023-12-29T13:44:59;3.40;;;1.83;;
15624;SDS011;7912;51.376;6.126;2023-12-29T13:47:30;4.53;;;1.80;;
15624;SDS011;7912;51.376;6.126;2023-12-29T13:49:59;3.07;;;1.70;;
15624;SDS011;7912;51.376;6.126;2023-12-29T13:52:26;4.03;;;1.57;;
15624;SDS011;7912;51.376;6.126;2023-12-29T13:54:54;2.53;;;1.30;;
15624;SDS011;7912;51.376;6.126;2023-12-29T13:57:34;3.30;;;1.80;;
15624;SDS011;7912;51.376;6.126;2023-12-29T14:00:21;2.80;;;1.47;;
15624;SDS011;7912;51.376;6.126;2023-12-29T14:08:32;1.80;;;1.10;;
15624;SDS011;7912;51.376;6.126;2023-12-29T14:11:09;5.30;;;1.30;;
15624;SDS011;7912;51.376;6.126;2023-12-29T14:13:44;1.93;;;1.30;;
15624;SDS011;7912;51.376;6.126;2023-12-29T14:16:12;1.83;;;1.20;;
15624;SDS011;7912;51.376;6.126;2023-12-29T14:21:32;2.77;;;1.10;;
15624;SDS011;7912;51.376;6.126;2023-12-29T14:26:35;1.60;;;1.20;;
15624;SDS011;7912;51.376;6.126;2023-12-29T14:29:11;1.67;;;0.80;;
15624;SDS011;7912;51.376;6.126;2023-12-29T14:31:41;0.77;;;0.73;;
15624;SDS011;7912;51.376;6.126;2023-12-29T14:34:10;1.77;;;0.97;;
15624;SDS011;7912;51.376;6.126;2023-12-29T14:36:42;0.80;;;0.63;;
15624;SDS011;7912;51.376;6.126;2023-12-29T14:39:10;2.13;;;0.80;;
15624;SDS011;7912;51.376;6.126;2023-12-29T14:41:37;1.30;;;0.90;;
15624;SDS011;7912;51.376;6.126;2023-12-29T14:44:06;2.50;;;1.10;;
15624;SDS011;7912;51.376;6.126;2023-12-29T14:46:33;1.13;;;0.83;;
15624;SDS011;7912;51.376;6.126;2023-12-29T14:49:04;1.53;;;1.10;;
15624;SDS011;7912;51.376;6.126;2023-12-29T14:51:32;2.53;;;1.30;;
15624;SDS011;7912;51.376;6.126;2023-12-29T14:53:59;2.90;;;1.70;;
15624;SDS011;7912;51.376;6.126;2023-12-29T14:56:30;1.93;;;1.00;;
15624;SDS011;7912;51.376;6.126;2023-12-29T15:01:43;1.63;;;0.97;;
15624;SDS011;7912;51.376;6.126;2023-12-29T15:04:11;2.83;;;1.43;;
15624;SDS011;7912;51.376;6.126;2023-12-29T15:06:40;2.03;;;1.60;;
15624;SDS011;7912;51.376;6.126;2023-12-29T15:09:08;3.20;;;1.50;;
15624;SDS011;7912;51.376;6.126;2023-12-29T15:11:37;1.27;;;1.17;;
15624;SDS011;7912;51.376;6.126;2023-12-29T15:14:04;2.33;;;1.20;;
15624;SDS011;7912;51.376;6.126;2023-12-29T15:16:32;2.17;;;1.40;;
15624;SDS011;7912;51.376;6.126;2023-12-29T15:19:00;2.47;;;1.63;;
15624;SDS011;7912;51.376;6.126;2023-12-29T15:21:30;2.83;;;1.27;;
15624;SDS011;7912;51.376;6.126;2023-12-29T15:23:59;2.63;;;1.20;;
15624;SDS011;7912;51.376;6.126;2023-12-29T15:26:26;2.17;;;1.27;;
15624;SDS011;7912;51.376;6.126;2023-12-29T15:28:53;2.30;;;1.50;;
15624;SDS011;7912;51.376;6.126;2023-12-29T15:31:21;2.00;;;1.20;;
15624;SDS011;7912;51.376;6.126;2023-12-29T15:33:50;1.93;;;1.30;;
15624;SDS011;7912;51.376;6.126;2023-12-29T15:36:19;3.13;;;1.33;;
15624;SDS011;7912;51.376;6.126;2023-12-29T15:38:50;3.47;;;2.20;;
15624;SDS011;7912;51.376;6.126;2023-12-29T15:41:17;2.50;;;1.40;;
15624;SDS011;7912;51.376;6.126;2023-12-29T15:43:45;2.33;;;1.80;;
15624;SDS011;7912;51.376;6.126;2023-12-29T15:46:13;2.10;;;1.57;;
15624;SDS011;7912;51.376;6.126;2023-12-29T15:48:42;2.07;;;1.30;;
15624;SDS011;7912;51.376;6.126;2023-12-29T15:51:11;2.90;;;1.30;;
15624;SDS011;7912;51.376;6.126;2023-12-29T15:53:39;2.13;;;1.10;;
15624;SDS011;7912;51.376;6.126;2023-12-29T15:56:06;1.67;;;1.20;;
15624;SDS011;7912;51.376;6.126;2023-12-29T15:58:34;1.40;;;1.10;;